sensor_id;sensor_type;location;lat;lon;timestamp;P1;durP1;ratioP1;P2;durP2;ratioP2
72413;SDS011;60995;52.154;4.498;2023-09-19T00:00:49;10.40;;;2.00;;
72413;SDS011;60995;52.154;4.498;2023-09-19T00:03:05;12.18;;;2.00;;
72413;SDS011;60995;52.154;4.498;2023-09-19T00:05:22;11.98;;;2.13;;
72413;SDS011;60995;52.154;4.498;2023-09-19T00:07:39;9.40;;;1.80;;
72413;SDS011;60995;52.154;4.498;2023-09-19T00:09:56;13.82;;;2.50;;
72413;SDS011;60995;52.154;4.498;2023-09-19T00:12:12;13.95;;;2.05;;
72413;SDS011;60995;52.154;4.498;2023-09-19T00:14:29;12.27;;;2.50;;
72413;SDS011;60995;52.154;4.498;2023-09-19T00:16:45;8.63;;;2.13;;
72413;SDS011;60995;52.154;4.498;2023-09-19T00:19:05;11.43;;;2.00;;
72413;SDS011;60995;52.154;4.498;2023-09-19T00:21:24;15.15;;;1.90;;
72413;SDS011;60995;52.154;4.498;2023-09-19T00:23:40;12.68;;;2.13;;
72413;SDS011;60995;52.154;4.498;2023-09-19T00:26:00;13.48;;;2.25;;
72413;SDS011;60995;52.154;4.498;2023-09-19T00:28:17;13.45;;;2.13;;
72413;SDS011;60995;52.154;4.498;2023-09-19T00:30:35;13.13;;;3.58;;
72413;SDS011;60995;52.154;4.498;2023-09-19T00:32:52;11.90;;;1.88;;
72413;SDS011;60995;52.154;4.498;2023-09-19T00:35:11;14.90;;;2.47;;
72413;SDS011;60995;52.154;4.498;2023-09-19T00:37:27;9.73;;;1.90;;
72413;SDS011;60995;52.154;4.498;2023-09-19T00:39:43;14.57;;;2.20;;
72413;SDS011;60995;52.154;4.498;2023-09-19T00:41:59;11.30;;;2.03;;
72413;SDS011;60995;52.154;4.498;2023-09-19T00:44:20;9.93;;;1.98;;
72413;SDS011;60995;52.154;4.498;2023-09-19T00:46:38;11.70;;;1.92;;
72413;SDS011;60995;52.154;4.498;2023-09-19T00:48:55;11.57;;;2.00;;
72413;SDS011;60995;52.154;4.498;2023-09-19T00:51:12;12.38;;;2.20;;
72413;SDS011;60995;52.154;4.498;2023-09-19T00:53:31;16.65;;;2.22;;
72413;SDS011;60995;52.154;4.498;2023-09-19T00:55:49;10.02;;;2.10;;
72413;SDS011;60995;52.154;4.498;2023-09-19T00:58:07;12.07;;;2.10;;
72413;SDS011;60995;52.154;4.498;2023-09-19T01:00:26;11.52;;;2.30;;
72413;SDS011;60995;52.154;4.498;2023-09-19T01:02:42;13.57;;;1.90;;
72413;SDS011;60995;52.154;4.498;2023-09-19T01:04:59;17.70;;;2.55;;
72413;SDS011;60995;52.154;4.498;2023-09-19T01:07:16;16.23;;;2.50;;
72413;SDS011;60995;52.154;4.498;2023-09-19T01:09:34;17.13;;;2.63;;
72413;SDS011;60995;52.154;4.498;2023-09-19T01:11:51;18.27;;;2.72;;
72413;SDS011;60995;52.154;4.498;2023-09-19T01:16:48;19.77;;;2.65;;
72413;SDS011;60995;52.154;4.498;2023-09-19T01:30:56;19.48;;;2.45;;
72413;SDS011;60995;52.154;4.498;2023-09-19T01:33:16;13.27;;;2.25;;
72413;SDS011;60995;52.154;4.498;2023-09-19T01:35:35;16.15;;;2.33;;
72413;SDS011;60995;52.154;4.498;2023-09-19T01:37:54;15.05;;;2.70;;
72413;SDS011;60995;52.154;4.498;2023-09-19T01:40:14;14.38;;;2.40;;
72413;SDS011;60995;52.154;4.498;2023-09-19T01:42:41;18.13;;;2.20;;
72413;SDS011;60995;52.154;4.498;2023-09-19T01:45:13;13.90;;;2.30;;
72413;SDS011;60995;52.154;4.498;2023-09-19T01:47:56;17.55;;;2.33;;
72413;SDS011;60995;52.154;4.498;2023-09-19T01:50:44;18.17;;;2.22;;
72413;SDS011;60995;52.154;4.498;2023-09-19T01:53:24;15.85;;;2.33;;
72413;SDS011;60995;52.154;4.498;2023-09-19T01:55:46;13.52;;;2.15;;
72413;SDS011;60995;52.154;4.498;2023-09-19T02:01:07;12.95;;;2.25;;
72413;SDS011;60995;52.154;4.498;2023-09-19T02:03:27;17.23;;;2.45;;
72413;SDS011;60995;52.154;4.498;2023-09-19T02:05:50;14.77;;;2.20;;
72413;SDS011;60995;52.154;4.498;2023-09-19T02:08:09;13.48;;;2.20;;
72413;SDS011;60995;52.154;4.498;2023-09-19T02:10:26;16.98;;;2.65;;
72413;SDS011;60995;52.154;4.498;2023-09-19T02:12:42;15.68;;;2.58;;
72413;SDS011;60995;52.154;4.498;2023-09-19T02:14:58;13.52;;;2.30;;
72413;SDS011;60995;52.154;4.498;2023-09-19T02:17:15;15.60;;;2.15;;
72413;SDS011;60995;52.154;4.498;2023-09-19T02:19:32;10.95;;;2.13;;
72413;SDS011;60995;52.154;4.498;2023-09-19T02:21:49;15.90;;;2.33;;
72413;SDS011;60995;52.154;4.498;2023-09-19T02:24:05;14.85;;;3.00;;
72413;SDS011;60995;52.154;4.498;2023-09-19T02:26:23;14.65;;;2.30;;
72413;SDS011;60995;52.154;4.498;2023-09-19T02:28:40;18.65;;;2.78;;
72413;SDS011;60995;52.154;4.498;2023-09-19T02:30:56;12.32;;;2.15;;
72413;SDS011;60995;52.154;4.498;2023-09-19T02:33:12;14.90;;;2.40;;
72413;SDS011;60995;52.154;4.498;2023-09-19T02:35:29;15.18;;;2.60;;
72413;SDS011;60995;52.154;4.498;2023-09-19T02:37:51;16.48;;;2.50;;
72413;SDS011;60995;52.154;4.498;2023-09-19T02:40:07;18.98;;;2.53;;
72413;SDS011;60995;52.154;4.498;2023-09-19T02:42:34;13.25;;;2.13;;
72413;SDS011;60995;52.154;4.498;2023-09-19T02:44:50;11.82;;;2.20;;
72413;SDS011;60995;52.154;4.498;2023-09-19T02:47:06;12.30;;;2.05;;
72413;SDS011;60995;52.154;4.498;2023-09-19T02:49:23;15.63;;;2.17;;
72413;SDS011;60995;52.154;4.498;2023-09-19T02:51:39;14.75;;;2.28;;
72413;SDS011;60995;52.154;4.498;2023-09-19T02:53:55;16.42;;;2.22;;
72413;SDS011;60995;52.154;4.498;2023-09-19T02:56:11;15.40;;;2.15;;
72413;SDS011;60995;52.154;4.498;2023-09-19T02:58:29;13.48;;;2.05;;
72413;SDS011;60995;52.154;4.498;2023-09-19T03:00:46;13.48;;;2.67;;
72413;SDS011;60995;52.154;4.498;2023-09-19T03:03:03;12.13;;;2.20;;
72413;SDS011;60995;52.154;4.498;2023-09-19T03:05:22;10.73;;;1.90;;
72413;SDS011;60995;52.154;4.498;2023-09-19T03:07:39;15.55;;;2.03;;
72413;SDS011;60995;52.154;4.498;2023-09-19T03:09:55;13.15;;;2.28;;
72413;SDS011;60995;52.154;4.498;2023-09-19T03:12:12;27.25;;;2.60;;
72413;SDS011;60995;52.154;4.498;2023-09-19T03:14:31;19.05;;;1.98;;
72413;SDS011;60995;52.154;4.498;2023-09-19T03:16:51;16.40;;;2.40;;
72413;SDS011;60995;52.154;4.498;2023-09-19T03:19:07;15.02;;;2.35;;
72413;SDS011;60995;52.154;4.498;2023-09-19T03:21:26;13.77;;;2.85;;
72413;SDS011;60995;52.154;4.498;2023-09-19T03:23:45;15.20;;;3.05;;
72413;SDS011;60995;52.154;4.498;2023-09-19T03:26:01;14.57;;;2.63;;
72413;SDS011;60995;52.154;4.498;2023-09-19T03:28:18;12.65;;;2.47;;
72413;SDS011;60995;52.154;4.498;2023-09-19T03:30:36;14.07;;;2.38;;
72413;SDS011;60995;52.154;4.498;2023-09-19T03:32:52;10.98;;;2.10;;
72413;SDS011;60995;52.154;4.498;2023-09-19T03:35:08;16.30;;;2.47;;
72413;SDS011;60995;52.154;4.498;2023-09-19T03:37:26;16.73;;;2.30;;
72413;SDS011;60995;52.154;4.498;2023-09-19T03:39:43;10.38;;;2.05;;
72413;SDS011;60995;52.154;4.498;2023-09-19T03:41:59;12.20;;;2.40;;
72413;SDS011;60995;52.154;4.498;2023-09-19T03:44:16;11.50;;;2.30;;
72413;SDS011;60995;52.154;4.498;2023-09-19T03:46:33;11.80;;;2.50;;
72413;SDS011;60995;52.154;4.498;2023-09-19T03:48:51;13.00;;;1.92;;
72413;SDS011;60995;52.154;4.498;2023-09-19T03:51:07;14.27;;;2.90;;
72413;SDS011;60995;52.154;4.498;2023-09-19T03:53:24;12.52;;;1.98;;
72413;SDS011;60995;52.154;4.498;2023-09-19T03:55:40;15.18;;;2.60;;
72413;SDS011;60995;52.154;4.498;2023-09-19T03:57:56;9.63;;;2.00;;
72413;SDS011;60995;52.154;4.498;2023-09-19T04:00:13;13.52;;;2.88;;
72413;SDS011;60995;52.154;4.498;2023-09-19T04:02:30;11.25;;;2.35;;
72413;SDS011;60995;52.154;4.498;2023-09-19T04:04:49;10.45;;;1.80;;
72413;SDS011;60995;52.154;4.498;2023-09-19T04:07:06;9.25;;;1.98;;
72413;SDS011;60995;52.154;4.498;2023-09-19T04:09:22;10.43;;;2.38;;
72413;SDS011;60995;52.154;4.498;2023-09-19T04:11:38;10.82;;;1.90;;
72413;SDS011;60995;52.154;4.498;2023-09-19T04:13:54;15.15;;;2.42;;
72413;SDS011;60995;52.154;4.498;2023-09-19T04:16:11;14.13;;;2.63;;
72413;SDS011;60995;52.154;4.498;2023-09-19T04:18:27;15.40;;;2.92;;
72413;SDS011;60995;52.154;4.498;2023-09-19T04:20:50;16.05;;;2.63;;
72413;SDS011;60995;52.154;4.498;2023-09-19T04:23:06;18.40;;;3.95;;
72413;SDS011;60995;52.154;4.498;2023-09-19T04:25:23;13.13;;;3.20;;
72413;SDS011;60995;52.154;4.498;2023-09-19T04:27:39;15.45;;;3.22;;
72413;SDS011;60995;52.154;4.498;2023-09-19T04:29:56;9.27;;;2.15;;
72413;SDS011;60995;52.154;4.498;2023-09-19T04:32:14;13.77;;;2.47;;
72413;SDS011;60995;52.154;4.498;2023-09-19T04:34:33;13.95;;;2.30;;
72413;SDS011;60995;52.154;4.498;2023-09-19T04:36:54;13.60;;;2.70;;
72413;SDS011;60995;52.154;4.498;2023-09-19T04:39:12;14.25;;;2.28;;
72413;SDS011;60995;52.154;4.498;2023-09-19T04:41:29;12.70;;;2.63;;
72413;SDS011;60995;52.154;4.498;2023-09-19T04:43:45;15.32;;;2.38;;
72413;SDS011;60995;52.154;4.498;2023-09-19T04:46:02;14.25;;;2.17;;
72413;SDS011;60995;52.154;4.498;2023-09-19T04:48:18;14.90;;;2.30;;
72413;SDS011;60995;52.154;4.498;2023-09-19T04:50:35;12.55;;;2.42;;
72413;SDS011;60995;52.154;4.498;2023-09-19T04:52:52;14.93;;;2.15;;
72413;SDS011;60995;52.154;4.498;2023-09-19T04:55:13;13.43;;;2.72;;
72413;SDS011;60995;52.154;4.498;2023-09-19T04:59:48;11.23;;;2.25;;
72413;SDS011;60995;52.154;4.498;2023-09-19T05:02:05;15.00;;;2.72;;
72413;SDS011;60995;52.154;4.498;2023-09-19T05:04:23;10.32;;;2.60;;
72413;SDS011;60995;52.154;4.498;2023-09-19T05:06:40;12.13;;;2.20;;
72413;SDS011;60995;52.154;4.498;2023-09-19T05:08:56;11.38;;;2.65;;
72413;SDS011;60995;52.154;4.498;2023-09-19T05:11:12;11.85;;;2.50;;
72413;SDS011;60995;52.154;4.498;2023-09-19T05:13:29;13.23;;;2.35;;
72413;SDS011;60995;52.154;4.498;2023-09-19T05:15:46;11.95;;;2.35;;
72413;SDS011;60995;52.154;4.498;2023-09-19T05:18:03;12.50;;;2.20;;
72413;SDS011;60995;52.154;4.498;2023-09-19T05:20:19;15.27;;;2.40;;
72413;SDS011;60995;52.154;4.498;2023-09-19T05:22:45;14.45;;;2.72;;
72413;SDS011;60995;52.154;4.498;2023-09-19T05:25:02;14.30;;;2.47;;
72413;SDS011;60995;52.154;4.498;2023-09-19T05:27:20;13.40;;;2.20;;
72413;SDS011;60995;52.154;4.498;2023-09-19T05:29:36;12.30;;;2.20;;
72413;SDS011;60995;52.154;4.498;2023-09-19T05:31:53;15.60;;;2.40;;
72413;SDS011;60995;52.154;4.498;2023-09-19T05:34:10;16.88;;;2.55;;
72413;SDS011;60995;52.154;4.498;2023-09-19T05:36:26;9.10;;;2.42;;
72413;SDS011;60995;52.154;4.498;2023-09-19T05:38:45;13.13;;;2.33;;
72413;SDS011;60995;52.154;4.498;2023-09-19T05:41:05;11.98;;;2.17;;
72413;SDS011;60995;52.154;4.498;2023-09-19T05:43:22;13.02;;;2.45;;
72413;SDS011;60995;52.154;4.498;2023-09-19T05:45:39;17.60;;;2.75;;
72413;SDS011;60995;52.154;4.498;2023-09-19T05:47:56;17.42;;;3.08;;
72413;SDS011;60995;52.154;4.498;2023-09-19T05:50:29;14.25;;;2.28;;
72413;SDS011;60995;52.154;4.498;2023-09-19T05:52:51;14.70;;;2.70;;
72413;SDS011;60995;52.154;4.498;2023-09-19T05:57:24;19.15;;;3.00;;
72413;SDS011;60995;52.154;4.498;2023-09-19T05:59:41;16.30;;;2.78;;
72413;SDS011;60995;52.154;4.498;2023-09-19T06:01:58;20.50;;;3.00;;
72413;SDS011;60995;52.154;4.498;2023-09-19T06:04:15;21.10;;;3.75;;
72413;SDS011;60995;52.154;4.498;2023-09-19T06:06:31;16.80;;;2.72;;
72413;SDS011;60995;52.154;4.498;2023-09-19T06:08:49;23.10;;;2.75;;
72413;SDS011;60995;52.154;4.498;2023-09-19T06:11:06;16.55;;;2.88;;
72413;SDS011;60995;52.154;4.498;2023-09-19T06:13:23;16.52;;;2.78;;
72413;SDS011;60995;52.154;4.498;2023-09-19T06:15:42;18.33;;;3.53;;
72413;SDS011;60995;52.154;4.498;2023-09-19T06:17:59;20.88;;;3.28;;
72413;SDS011;60995;52.154;4.498;2023-09-19T06:20:15;14.25;;;2.70;;
72413;SDS011;60995;52.154;4.498;2023-09-19T06:22:33;18.48;;;2.65;;
72413;SDS011;60995;52.154;4.498;2023-09-19T06:24:50;17.55;;;3.33;;
72413;SDS011;60995;52.154;4.498;2023-09-19T06:27:06;18.88;;;3.03;;
72413;SDS011;60995;52.154;4.498;2023-09-19T06:29:22;15.43;;;2.90;;
72413;SDS011;60995;52.154;4.498;2023-09-19T06:31:39;12.20;;;2.45;;
72413;SDS011;60995;52.154;4.498;2023-09-19T06:33:55;18.35;;;3.30;;
72413;SDS011;60995;52.154;4.498;2023-09-19T06:36:11;22.10;;;3.95;;
72413;SDS011;60995;52.154;4.498;2023-09-19T06:38:28;14.15;;;2.92;;
72413;SDS011;60995;52.154;4.498;2023-09-19T06:40:44;17.38;;;2.88;;
72413;SDS011;60995;52.154;4.498;2023-09-19T06:43:01;15.20;;;2.97;;
72413;SDS011;60995;52.154;4.498;2023-09-19T06:45:20;21.95;;;3.05;;
72413;SDS011;60995;52.154;4.498;2023-09-19T06:47:37;16.60;;;3.05;;
72413;SDS011;60995;52.154;4.498;2023-09-19T06:49:54;17.60;;;3.15;;
72413;SDS011;60995;52.154;4.498;2023-09-19T06:52:10;16.98;;;2.67;;
72413;SDS011;60995;52.154;4.498;2023-09-19T06:54:26;19.48;;;3.28;;
72413;SDS011;60995;52.154;4.498;2023-09-19T06:56:47;16.73;;;2.58;;
72413;SDS011;60995;52.154;4.498;2023-09-19T06:59:03;18.63;;;3.10;;
72413;SDS011;60995;52.154;4.498;2023-09-19T07:01:21;15.93;;;2.63;;
72413;SDS011;60995;52.154;4.498;2023-09-19T07:03:38;19.70;;;2.95;;
72413;SDS011;60995;52.154;4.498;2023-09-19T07:05:56;14.88;;;2.78;;
72413;SDS011;60995;52.154;4.498;2023-09-19T07:08:14;15.07;;;2.58;;
72413;SDS011;60995;52.154;4.498;2023-09-19T07:10:30;21.63;;;3.55;;
72413;SDS011;60995;52.154;4.498;2023-09-19T07:12:48;15.05;;;2.50;;
72413;SDS011;60995;52.154;4.498;2023-09-19T07:15:14;19.15;;;2.90;;
72413;SDS011;60995;52.154;4.498;2023-09-19T07:17:30;18.25;;;3.30;;
72413;SDS011;60995;52.154;4.498;2023-09-19T07:19:48;13.45;;;3.55;;
72413;SDS011;60995;52.154;4.498;2023-09-19T07:22:06;13.50;;;3.50;;
72413;SDS011;60995;52.154;4.498;2023-09-19T07:24:23;15.68;;;3.55;;
72413;SDS011;60995;52.154;4.498;2023-09-19T07:26:39;15.68;;;2.97;;
72413;SDS011;60995;52.154;4.498;2023-09-19T07:28:56;20.13;;;4.75;;
72413;SDS011;60995;52.154;4.498;2023-09-19T07:31:18;15.95;;;3.10;;
72413;SDS011;60995;52.154;4.498;2023-09-19T07:33:34;13.98;;;2.63;;
72413;SDS011;60995;52.154;4.498;2023-09-19T07:35:50;14.52;;;2.90;;
72413;SDS011;60995;52.154;4.498;2023-09-19T07:38:07;16.50;;;3.17;;
72413;SDS011;60995;52.154;4.498;2023-09-19T07:40:27;17.67;;;3.00;;
72413;SDS011;60995;52.154;4.498;2023-09-19T07:42:44;15.35;;;3.03;;
72413;SDS011;60995;52.154;4.498;2023-09-19T07:45:02;17.92;;;3.47;;
72413;SDS011;60995;52.154;4.498;2023-09-19T07:47:22;17.27;;;3.25;;
72413;SDS011;60995;52.154;4.498;2023-09-19T07:49:38;17.25;;;2.67;;
72413;SDS011;60995;52.154;4.498;2023-09-19T07:51:54;20.33;;;3.50;;
72413;SDS011;60995;52.154;4.498;2023-09-19T07:54:12;18.80;;;3.63;;
72413;SDS011;60995;52.154;4.498;2023-09-19T07:56:30;20.63;;;3.08;;
72413;SDS011;60995;52.154;4.498;2023-09-19T07:58:46;15.02;;;3.40;;
72413;SDS011;60995;52.154;4.498;2023-09-19T08:01:06;17.38;;;2.85;;
72413;SDS011;60995;52.154;4.498;2023-09-19T08:05:43;17.33;;;2.85;;
72413;SDS011;60995;52.154;4.498;2023-09-19T08:08:00;15.50;;;3.00;;
72413;SDS011;60995;52.154;4.498;2023-09-19T08:10:17;17.10;;;3.15;;
72413;SDS011;60995;52.154;4.498;2023-09-19T08:12:34;17.23;;;3.10;;
72413;SDS011;60995;52.154;4.498;2023-09-19T08:14:53;17.42;;;3.00;;
72413;SDS011;60995;52.154;4.498;2023-09-19T08:17:10;13.02;;;2.92;;
72413;SDS011;60995;52.154;4.498;2023-09-19T08:19:28;16.73;;;3.10;;
72413;SDS011;60995;52.154;4.498;2023-09-19T08:21:46;21.90;;;3.70;;
72413;SDS011;60995;52.154;4.498;2023-09-19T08:24:03;18.77;;;2.85;;
72413;SDS011;60995;52.154;4.498;2023-09-19T08:26:19;18.60;;;3.75;;
72413;SDS011;60995;52.154;4.498;2023-09-19T08:28:37;17.30;;;3.17;;
72413;SDS011;60995;52.154;4.498;2023-09-19T08:30:56;15.73;;;3.22;;
72413;SDS011;60995;52.154;4.498;2023-09-19T08:33:20;17.73;;;3.47;;
72413;SDS011;60995;52.154;4.498;2023-09-19T08:35:36;21.65;;;3.33;;
72413;SDS011;60995;52.154;4.498;2023-09-19T08:37:57;16.45;;;3.47;;
72413;SDS011;60995;52.154;4.498;2023-09-19T08:40:13;18.55;;;3.20;;
72413;SDS011;60995;52.154;4.498;2023-09-19T08:42:29;14.43;;;3.08;;
72413;SDS011;60995;52.154;4.498;2023-09-19T08:44:46;21.67;;;3.70;;
72413;SDS011;60995;52.154;4.498;2023-09-19T08:52:16;16.63;;;2.90;;
72413;SDS011;60995;52.154;4.498;2023-09-19T08:54:41;13.98;;;2.80;;
72413;SDS011;60995;52.154;4.498;2023-09-19T08:56:57;20.92;;;3.42;;
72413;SDS011;60995;52.154;4.498;2023-09-19T08:59:23;13.65;;;2.78;;
72413;SDS011;60995;52.154;4.498;2023-09-19T09:01:45;19.77;;;3.92;;
72413;SDS011;60995;52.154;4.498;2023-09-19T09:04:02;22.45;;;3.53;;
72413;SDS011;60995;52.154;4.498;2023-09-19T09:06:20;17.20;;;3.42;;
72413;SDS011;60995;52.154;4.498;2023-09-19T09:08:39;15.65;;;3.20;;
72413;SDS011;60995;52.154;4.498;2023-09-19T09:10:56;19.60;;;3.25;;
72413;SDS011;60995;52.154;4.498;2023-09-19T09:13:13;16.05;;;2.92;;
72413;SDS011;60995;52.154;4.498;2023-09-19T09:15:31;20.13;;;3.25;;
72413;SDS011;60995;52.154;4.498;2023-09-19T09:17:52;22.05;;;3.42;;
72413;SDS011;60995;52.154;4.498;2023-09-19T09:20:09;19.30;;;3.38;;
72413;SDS011;60995;52.154;4.498;2023-09-19T09:22:26;20.42;;;3.33;;
72413;SDS011;60995;52.154;4.498;2023-09-19T09:24:55;14.23;;;2.95;;
72413;SDS011;60995;52.154;4.498;2023-09-19T09:27:14;18.92;;;3.20;;
72413;SDS011;60995;52.154;4.498;2023-09-19T09:29:52;18.73;;;3.20;;
72413;SDS011;60995;52.154;4.498;2023-09-19T09:32:17;20.65;;;2.75;;
72413;SDS011;60995;52.154;4.498;2023-09-19T09:34:44;17.13;;;3.03;;
72413;SDS011;60995;52.154;4.498;2023-09-19T09:37:05;14.52;;;2.97;;
72413;SDS011;60995;52.154;4.498;2023-09-19T09:39:31;12.57;;;2.60;;
72413;SDS011;60995;52.154;4.498;2023-09-19T09:41:48;17.42;;;3.05;;
72413;SDS011;60995;52.154;4.498;2023-09-19T09:44:12;21.58;;;3.20;;
72413;SDS011;60995;52.154;4.498;2023-09-19T09:46:31;15.43;;;3.53;;
72413;SDS011;60995;52.154;4.498;2023-09-19T09:49:05;16.33;;;3.42;;
72413;SDS011;60995;52.154;4.498;2023-09-19T09:51:41;16.60;;;3.10;;
72413;SDS011;60995;52.154;4.498;2023-09-19T09:54:15;18.60;;;2.80;;
72413;SDS011;60995;52.154;4.498;2023-09-19T09:56:36;19.88;;;3.83;;
72413;SDS011;60995;52.154;4.498;2023-09-19T09:59:15;21.50;;;4.00;;
72413;SDS011;60995;52.154;4.498;2023-09-19T10:01:46;18.63;;;3.28;;
72413;SDS011;60995;52.154;4.498;2023-09-19T10:04:06;13.98;;;2.70;;
72413;SDS011;60995;52.154;4.498;2023-09-19T10:06:22;18.80;;;3.10;;
72413;SDS011;60995;52.154;4.498;2023-09-19T10:08:39;17.83;;;2.70;;
72413;SDS011;60995;52.154;4.498;2023-09-19T10:10:55;14.18;;;2.72;;
72413;SDS011;60995;52.154;4.498;2023-09-19T10:13:20;18.77;;;2.55;;
72413;SDS011;60995;52.154;4.498;2023-09-19T10:15:39;14.27;;;2.47;;
72413;SDS011;60995;52.154;4.498;2023-09-19T10:18:06;20.05;;;3.20;;
72413;SDS011;60995;52.154;4.498;2023-09-19T10:20:26;13.23;;;2.58;;
72413;SDS011;60995;52.154;4.498;2023-09-19T10:22:53;16.65;;;2.13;;
72413;SDS011;60995;52.154;4.498;2023-09-19T10:25:13;13.68;;;2.35;;
72413;SDS011;60995;52.154;4.498;2023-09-19T10:27:29;13.07;;;2.30;;
72413;SDS011;60995;52.154;4.498;2023-09-19T10:29:53;14.68;;;2.65;;
72413;SDS011;60995;52.154;4.498;2023-09-19T10:32:13;13.05;;;2.10;;
72413;SDS011;60995;52.154;4.498;2023-09-19T10:34:37;15.25;;;2.55;;
72413;SDS011;60995;52.154;4.498;2023-09-19T10:36:57;10.40;;;1.80;;
72413;SDS011;60995;52.154;4.498;2023-09-19T10:39:14;14.75;;;1.80;;
72413;SDS011;60995;52.154;4.498;2023-09-19T10:41:35;16.58;;;1.98;;
72413;SDS011;60995;52.154;4.498;2023-09-19T10:43:53;15.18;;;2.63;;
72413;SDS011;60995;52.154;4.498;2023-09-19T10:46:12;10.73;;;2.05;;
72413;SDS011;60995;52.154;4.498;2023-09-19T10:48:29;12.27;;;2.13;;
72413;SDS011;60995;52.154;4.498;2023-09-19T10:50:51;9.55;;;2.10;;
72413;SDS011;60995;52.154;4.498;2023-09-19T10:53:22;11.93;;;1.80;;
72413;SDS011;60995;52.154;4.498;2023-09-19T10:55:39;13.02;;;2.83;;
72413;SDS011;60995;52.154;4.498;2023-09-19T10:57:56;10.93;;;2.00;;
72413;SDS011;60995;52.154;4.498;2023-09-19T11:00:29;8.15;;;1.98;;
72413;SDS011;60995;52.154;4.498;2023-09-19T11:05:25;10.70;;;2.10;;
72413;SDS011;60995;52.154;4.498;2023-09-19T11:07:57;9.85;;;1.95;;
72413;SDS011;60995;52.154;4.498;2023-09-19T11:13:25;13.13;;;1.90;;
72413;SDS011;60995;52.154;4.498;2023-09-19T11:24:05;13.73;;;1.85;;
72413;SDS011;60995;52.154;4.498;2023-09-19T11:26:41;11.40;;;1.70;;
72413;SDS011;60995;52.154;4.498;2023-09-19T11:29:24;12.55;;;2.28;;
72413;SDS011;60995;52.154;4.498;2023-09-19T11:31:47;9.93;;;2.00;;
72413;SDS011;60995;52.154;4.498;2023-09-19T11:39:31;13.77;;;2.20;;
72413;SDS011;60995;52.154;4.498;2023-09-19T11:41:48;12.10;;;2.00;;
72413;SDS011;60995;52.154;4.498;2023-09-19T11:46:28;9.85;;;2.00;;
72413;SDS011;60995;52.154;4.498;2023-09-19T11:48:49;8.50;;;1.70;;
72413;SDS011;60995;52.154;4.498;2023-09-19T11:51:13;10.93;;;1.77;;
72413;SDS011;60995;52.154;4.498;2023-09-19T11:53:35;12.88;;;2.33;;
72413;SDS011;60995;52.154;4.498;2023-09-19T11:55:54;9.52;;;1.95;;
72413;SDS011;60995;52.154;4.498;2023-09-19T11:58:16;9.00;;;1.70;;
72413;SDS011;60995;52.154;4.498;2023-09-19T12:00:37;12.68;;;1.80;;
72413;SDS011;60995;52.154;4.498;2023-09-19T12:02:57;11.73;;;1.77;;
72413;SDS011;60995;52.154;4.498;2023-09-19T12:05:28;10.23;;;1.80;;
72413;SDS011;60995;52.154;4.498;2023-09-19T12:07:47;13.68;;;2.30;;
72413;SDS011;60995;52.154;4.498;2023-09-19T12:10:04;15.35;;;2.40;;
72413;SDS011;60995;52.154;4.498;2023-09-19T12:12:25;11.45;;;2.17;;
72413;SDS011;60995;52.154;4.498;2023-09-19T12:14:47;13.75;;;2.10;;
72413;SDS011;60995;52.154;4.498;2023-09-19T12:17:06;24.65;;;3.03;;
72413;SDS011;60995;52.154;4.498;2023-09-19T12:19:23;13.07;;;2.00;;
72413;SDS011;60995;52.154;4.498;2023-09-19T12:21:39;13.70;;;2.10;;
72413;SDS011;60995;52.154;4.498;2023-09-19T12:24:06;10.10;;;2.00;;
72413;SDS011;60995;52.154;4.498;2023-09-19T12:26:29;10.82;;;1.65;;
72413;SDS011;60995;52.154;4.498;2023-09-19T12:28:49;11.55;;;1.95;;
72413;SDS011;60995;52.154;4.498;2023-09-19T12:31:10;8.85;;;1.70;;
72413;SDS011;60995;52.154;4.498;2023-09-19T12:33:28;12.55;;;1.85;;
72413;SDS011;60995;52.154;4.498;2023-09-19T12:35:45;15.25;;;2.03;;
72413;SDS011;60995;52.154;4.498;2023-09-19T12:38:02;14.00;;;1.83;;
72413;SDS011;60995;52.154;4.498;2023-09-19T12:40:20;13.30;;;2.08;;
72413;SDS011;60995;52.154;4.498;2023-09-19T12:42:43;9.50;;;1.90;;
72413;SDS011;60995;52.154;4.498;2023-09-19T12:45:02;12.90;;;2.25;;
72413;SDS011;60995;52.154;4.498;2023-09-19T12:47:25;10.80;;;1.88;;
72413;SDS011;60995;52.154;4.498;2023-09-19T12:52:42;13.30;;;2.28;;
72413;SDS011;60995;52.154;4.498;2023-09-19T12:55:04;8.95;;;2.20;;
72413;SDS011;60995;52.154;4.498;2023-09-19T12:57:23;13.32;;;1.67;;
72413;SDS011;60995;52.154;4.498;2023-09-19T12:59:41;10.15;;;1.85;;
72413;SDS011;60995;52.154;4.498;2023-09-19T13:02:04;13.40;;;2.70;;
72413;SDS011;60995;52.154;4.498;2023-09-19T13:04:29;11.55;;;2.22;;
72413;SDS011;60995;52.154;4.498;2023-09-19T13:06:48;11.75;;;2.35;;
72413;SDS011;60995;52.154;4.498;2023-09-19T13:09:09;12.18;;;2.05;;
72413;SDS011;60995;52.154;4.498;2023-09-19T13:11:35;12.38;;;2.30;;
72413;SDS011;60995;52.154;4.498;2023-09-19T13:16:53;13.35;;;2.03;;
72413;SDS011;60995;52.154;4.498;2023-09-19T13:19:36;10.35;;;2.00;;
72413;SDS011;60995;52.154;4.498;2023-09-19T13:22:01;12.85;;;2.17;;
72413;SDS011;60995;52.154;4.498;2023-09-19T13:24:19;11.93;;;2.33;;
72413;SDS011;60995;52.154;4.498;2023-09-19T13:26:43;9.70;;;2.10;;
72413;SDS011;60995;52.154;4.498;2023-09-19T13:29:00;13.60;;;2.65;;
72413;SDS011;60995;52.154;4.498;2023-09-19T13:31:17;13.00;;;2.22;;
72413;SDS011;60995;52.154;4.498;2023-09-19T13:33:34;14.60;;;2.72;;
72413;SDS011;60995;52.154;4.498;2023-09-19T13:35:51;16.98;;;2.67;;
72413;SDS011;60995;52.154;4.498;2023-09-19T13:38:08;13.55;;;2.63;;
72413;SDS011;60995;52.154;4.498;2023-09-19T13:40:28;14.05;;;2.83;;
72413;SDS011;60995;52.154;4.498;2023-09-19T13:42:47;15.05;;;2.70;;
72413;SDS011;60995;52.154;4.498;2023-09-19T13:45:04;13.82;;;2.90;;
72413;SDS011;60995;52.154;4.498;2023-09-19T13:47:21;14.18;;;2.83;;
72413;SDS011;60995;52.154;4.498;2023-09-19T13:49:42;17.15;;;3.00;;
72413;SDS011;60995;52.154;4.498;2023-09-19T13:51:58;14.93;;;3.13;;
72413;SDS011;60995;52.154;4.498;2023-09-19T13:54:17;13.60;;;2.90;;
72413;SDS011;60995;52.154;4.498;2023-09-19T13:56:33;15.43;;;3.22;;
72413;SDS011;60995;52.154;4.498;2023-09-19T13:58:49;13.20;;;2.83;;
72413;SDS011;60995;52.154;4.498;2023-09-19T14:01:06;12.68;;;3.17;;
72413;SDS011;60995;52.154;4.498;2023-09-19T14:03:28;14.15;;;3.03;;
72413;SDS011;60995;52.154;4.498;2023-09-19T14:05:44;22.35;;;3.85;;
72413;SDS011;60995;52.154;4.498;2023-09-19T14:08:00;14.65;;;3.72;;
72413;SDS011;60995;52.154;4.498;2023-09-19T14:10:19;20.23;;;3.92;;
72413;SDS011;60995;52.154;4.498;2023-09-19T14:12:36;17.40;;;3.55;;
72413;SDS011;60995;52.154;4.498;2023-09-19T14:15:00;16.67;;;3.80;;
72413;SDS011;60995;52.154;4.498;2023-09-19T14:17:17;14.20;;;3.78;;
72413;SDS011;60995;52.154;4.498;2023-09-19T14:19:34;18.25;;;3.70;;
72413;SDS011;60995;52.154;4.498;2023-09-19T14:21:52;17.38;;;3.03;;
72413;SDS011;60995;52.154;4.498;2023-09-19T14:24:11;19.48;;;3.55;;
72413;SDS011;60995;52.154;4.498;2023-09-19T14:26:33;13.13;;;2.50;;
72413;SDS011;60995;52.154;4.498;2023-09-19T14:28:50;17.02;;;2.97;;
72413;SDS011;60995;52.154;4.498;2023-09-19T14:31:10;15.35;;;2.75;;
72413;SDS011;60995;52.154;4.498;2023-09-19T14:33:27;22.23;;;3.08;;
72413;SDS011;60995;52.154;4.498;2023-09-19T14:35:43;14.52;;;3.30;;
72413;SDS011;60995;52.154;4.498;2023-09-19T14:37:59;13.63;;;3.30;;
72413;SDS011;60995;52.154;4.498;2023-09-19T14:40:15;17.05;;;2.90;;
72413;SDS011;60995;52.154;4.498;2023-09-19T14:42:33;13.45;;;2.90;;
72413;SDS011;60995;52.154;4.498;2023-09-19T14:44:53;13.93;;;2.67;;